sensor_id;sensor_type;location;lat;lon;timestamp;P1;durP1;ratioP1;P2;durP2;ratioP2
24173;SDS011;12324;48.146;11.502;2022-11-21T00:02:12;1999.90;;;999.90;;
24173;SDS011;12324;48.146;11.502;2022-11-21T00:04:39;1999.90;;;999.90;;
24173;SDS011;12324;48.146;11.502;2022-11-21T00:07:06;1999.90;;;999.90;;
24173;SDS011;12324;48.146;11.502;2022-11-21T00:09:33;1999.90;;;999.90;;
24173;SDS011;12324;48.146;11.502;2022-11-21T00:12:01;1999.90;;;999.90;;
24173;SDS011;12324;48.146;11.502;2022-11-21T00:14:28;1999.90;;;999.90;;
24173;SDS011;12324;48.146;11.502;2022-11-21T00:16:55;1999.90;;;999.90;;
24173;SDS011;12324;48.146;11.502;2022-11-21T00:19:23;1999.90;;;999.90;;
24173;SDS011;12324;48.146;11.502;2022-11-21T00:21:50;1999.90;;;999.90;;
24173;SDS011;12324;48.146;11.502;2022-11-21T00:24:17;1999.90;;;999.90;;
24173;SDS011;12324;48.146;11.502;2022-11-21T00:26:44;1999.90;;;999.90;;
24173;SDS011;12324;48.146;11.502;2022-11-21T00:29:11;1999.90;;;999.90;;
24173;SDS011;12324;48.146;11.502;2022-11-21T00:31:38;1999.90;;;999.90;;
24173;SDS011;12324;48.146;11.502;2022-11-21T00:34:05;1999.90;;;999.90;;
24173;SDS011;12324;48.146;11.502;2022-11-21T00:36:32;1999.90;;;999.90;;
24173;SDS011;12324;48.146;11.502;2022-11-21T00:38:59;1999.90;;;999.90;;
24173;SDS011;12324;48.146;11.502;2022-11-21T00:41:26;1999.90;;;999.90;;
24173;SDS011;12324;48.146;11.502;2022-11-21T00:43:53;1999.90;;;999.90;;
24173;SDS011;12324;48.146;11.502;2022-11-21T00:46:20;1999.90;;;999.90;;
24173;SDS011;12324;48.146;11.502;2022-11-21T00:48:47;1999.90;;;999.90;;
24173;SDS011;12324;48.146;11.502;2022-11-21T00:51:14;1999.90;;;999.90;;
24173;SDS011;12324;48.146;11.502;2022-11-21T00:53:41;1999.90;;;999.90;;
24173;SDS011;12324;48.146;11.502;2022-11-21T00:56:08;1999.90;;;999.90;;
24173;SDS011;12324;48.146;11.502;2022-11-21T00:58:35;1999.90;;;999.90;;
24173;SDS011;12324;48.146;11.502;2022-11-21T01:01:06;1999.90;;;999.90;;
24173;SDS011;12324;48.146;11.502;2022-11-21T01:03:34;1999.90;;;999.90;;
24173;SDS011;12324;48.146;11.502;2022-11-21T01:06:02;1999.90;;;999.90;;
24173;SDS011;12324;48.146;11.502;2022-11-21T01:08:30;1999.90;;;999.90;;
24173;SDS011;12324;48.146;11.502;2022-11-21T01:11:00;1999.90;;;999.90;;
24173;SDS011;12324;48.146;11.502;2022-11-21T01:13:28;1999.90;;;999.90;;
24173;SDS011;12324;48.146;11.502;2022-11-21T01:15:55;1999.90;;;999.90;;
24173;SDS011;12324;48.146;11.502;2022-11-21T01:18:22;1999.90;;;999.90;;
24173;SDS011;12324;48.146;11.502;2022-11-21T01:20:49;1999.90;;;999.90;;
24173;SDS011;12324;48.146;11.502;2022-11-21T01:23:16;1999.90;;;999.90;;
24173;SDS011;12324;48.146;11.502;2022-11-21T01:25:43;1999.90;;;999.90;;
24173;SDS011;12324;48.146;11.502;2022-11-21T01:28:10;1999.90;;;999.90;;
24173;SDS011;12324;48.146;11.502;2022-11-21T01:30:37;1999.90;;;999.90;;
24173;SDS011;12324;48.146;11.502;2022-11-21T01:33:04;1999.90;;;999.90;;
24173;SDS011;12324;48.146;11.502;2022-11-21T01:35:31;1999.90;;;999.90;;
24173;SDS011;12324;48.146;11.502;2022-11-21T01:37:58;1999.90;;;999.90;;
24173;SDS011;12324;48.146;11.502;2022-11-21T01:40:26;1999.90;;;999.90;;
24173;SDS011;12324;48.146;11.502;2022-11-21T01:43:02;1999.90;;;999.90;;
24173;SDS011;12324;48.146;11.502;2022-11-21T01:51:27;1999.90;;;999.90;;
24173;SDS011;12324;48.146;11.502;2022-11-21T01:56:38;1999.90;;;999.90;;
24173;SDS011;12324;48.146;11.502;2022-11-21T01:59:05;1999.90;;;999.90;;
24173;SDS011;12324;48.146;11.502;2022-11-21T02:01:34;1999.90;;;999.90;;
24173;SDS011;12324;48.146;11.502;2022-11-21T02:04:01;1999.90;;;999.90;;
24173;SDS011;12324;48.146;11.502;2022-11-21T02:06:30;1999.90;;;999.90;;
24173;SDS011;12324;48.146;11.502;2022-11-21T02:08:57;1999.90;;;999.90;;
24173;SDS011;12324;48.146;11.502;2022-11-21T02:11:43;1999.90;;;999.90;;
24173;SDS011;12324;48.146;11.502;2022-11-21T02:14:11;1999.90;;;999.90;;
24173;SDS011;12324;48.146;11.502;2022-11-21T02:16:38;1999.90;;;999.90;;
24173;SDS011;12324;48.146;11.502;2022-11-21T02:19:08;1999.90;;;999.90;;
24173;SDS011;12324;48.146;11.502;2022-11-21T02:21:39;1999.90;;;999.90;;
24173;SDS011;12324;48.146;11.502;2022-11-21T02:24:22;1999.90;;;999.90;;
24173;SDS011;12324;48.146;11.502;2022-11-21T02:26:51;1999.90;;;999.90;;
24173;SDS011;12324;48.146;11.502;2022-11-21T02:29:18;1999.90;;;999.90;;
24173;SDS011;12324;48.146;11.502;2022-11-21T02:31:45;1999.90;;;999.90;;
24173;SDS011;12324;48.146;11.502;2022-11-21T02:34:13;1999.90;;;999.90;;
24173;SDS011;12324;48.146;11.502;2022-11-21T02:36:41;1999.90;;;999.90;;
24173;SDS011;12324;48.146;11.502;2022-11-21T02:39:18;1999.90;;;999.90;;
24173;SDS011;12324;48.146;11.502;2022-11-21T02:41:53;1999.90;;;999.90;;
24173;SDS011;12324;48.146;11.502;2022-11-21T02:44:25;1999.90;;;999.90;;
24173;SDS011;12324;48.146;11.502;2022-11-21T02:46:55;1999.90;;;999.90;;
24173;SDS011;12324;48.146;11.502;2022-11-21T02:52:08;1999.90;;;999.90;;
24173;SDS011;12324;48.146;11.502;2022-11-21T02:54:35;1999.90;;;999.90;;
24173;SDS011;12324;48.146;11.502;2022-11-21T02:57:02;1999.90;;;999.90;;
24173;SDS011;12324;48.146;11.502;2022-11-21T02:59:29;1999.90;;;999.90;;
24173;SDS011;12324;48.146;11.502;2022-11-21T03:01:56;1999.90;;;999.90;;
24173;SDS011;12324;48.146;11.502;2022-11-21T03:04:25;1999.90;;;999.90;;
24173;SDS011;12324;48.146;11.502;2022-11-21T03:06:53;1999.90;;;999.90;;
24173;SDS011;12324;48.146;11.502;2022-11-21T03:09:20;1999.90;;;999.90;;
24173;SDS011;12324;48.146;11.502;2022-11-21T03:11:47;1999.90;;;999.90;;
24173;SDS011;12324;48.146;11.502;2022-11-21T03:14:14;1999.90;;;999.90;;
24173;SDS011;12324;48.146;11.502;2022-11-21T03:16:41;1999.90;;;999.90;;
24173;SDS011;12324;48.146;11.502;2022-11-21T03:19:08;1999.90;;;999.90;;
24173;SDS011;12324;48.146;11.502;2022-11-21T03:21:35;1999.90;;;999.90;;
24173;SDS011;12324;48.146;11.502;2022-11-21T03:24:02;1999.90;;;999.90;;
24173;SDS011;12324;48.146;11.502;2022-11-21T03:26:29;1999.90;;;999.90;;
24173;SDS011;12324;48.146;11.502;2022-11-21T03:28:56;1999.90;;;999.90;;
24173;SDS011;12324;48.146;11.502;2022-11-21T03:31:23;1999.90;;;999.90;;
24173;SDS011;12324;48.146;11.502;2022-11-21T03:33:50;1999.90;;;999.90;;
24173;SDS011;12324;48.146;11.502;2022-11-21T03:36:17;1999.90;;;999.90;;
24173;SDS011;12324;48.146;11.502;2022-11-21T03:38:44;1999.90;;;999.90;;
24173;SDS011;12324;48.146;11.502;2022-11-21T03:41:11;1999.90;;;999.90;;
24173;SDS011;12324;48.146;11.502;2022-11-21T03:44:04;1999.90;;;999.90;;
24173;SDS011;12324;48.146;11.502;2022-11-21T03:46:33;1999.90;;;999.90;;
24173;SDS011;12324;48.146;11.502;2022-11-21T03:49:00;1999.90;;;999.90;;
24173;SDS011;12324;48.146;11.502;2022-11-21T03:51:27;1999.90;;;999.90;;
24173;SDS011;12324;48.146;11.502;2022-11-21T03:53:54;1999.90;;;999.90;;
24173;SDS011;12324;48.146;11.502;2022-11-21T03:56:22;1999.90;;;999.90;;
24173;SDS011;12324;48.146;11.502;2022-11-21T03:58:49;1999.90;;;999.90;;
24173;SDS011;12324;48.146;11.502;2022-11-21T04:01:16;1999.90;;;999.90;;
24173;SDS011;12324;48.146;11.502;2022-11-21T04:03:43;1999.90;;;999.90;;
24173;SDS011;12324;48.146;11.502;2022-11-21T04:06:11;1999.90;;;999.90;;
24173;SDS011;12324;48.146;11.502;2022-11-21T04:08:39;1999.90;;;999.90;;
24173;SDS011;12324;48.146;11.502;2022-11-21T04:11:06;1999.90;;;999.90;;
24173;SDS011;12324;48.146;11.502;2022-11-21T04:13:33;1999.90;;;999.90;;
24173;SDS011;12324;48.146;11.502;2022-11-21T04:16:00;1999.90;;;999.90;;
24173;SDS011;12324;48.146;11.502;2022-11-21T04:18:28;1999.90;;;999.90;;
24173;SDS011;12324;48.146;11.502;2022-11-21T04:20:55;1999.90;;;999.90;;
24173;SDS011;12324;48.146;11.502;2022-11-21T04:23:23;1999.90;;;999.90;;
24173;SDS011;12324;48.146;11.502;2022-11-21T04:25:50;1999.90;;;999.90;;
24173;SDS011;12324;48.146;11.502;2022-11-21T04:28:17;1999.90;;;999.90;;
24173;SDS011;12324;48.146;11.502;2022-11-21T04:30:44;1999.90;;;999.90;;
24173;SDS011;12324;48.146;11.502;2022-11-21T04:33:12;1999.90;;;999.90;;
24173;SDS011;12324;48.146;11.502;2022-11-21T04:35:39;1999.90;;;999.90;;
24173;SDS011;12324;48.146;11.502;2022-11-21T04:38:08;1999.90;;;999.90;;
24173;SDS011;12324;48.146;11.502;2022-11-21T04:40:35;1999.90;;;999.90;;
24173;SDS011;12324;48.146;11.502;2022-11-21T04:43:02;1999.90;;;999.90;;
24173;SDS011;12324;48.146;11.502;2022-11-21T04:45:29;1999.90;;;999.90;;
24173;SDS011;12324;48.146;11.502;2022-11-21T04:47:56;1999.90;;;999.90;;
24173;SDS011;12324;48.146;11.502;2022-11-21T04:50:23;1999.90;;;999.90;;
24173;SDS011;12324;48.146;11.502;2022-11-21T04:52:51;1999.90;;;999.90;;
24173;SDS011;12324;48.146;11.502;2022-11-21T04:55:18;1999.90;;;999.90;;
24173;SDS011;12324;48.146;11.502;2022-11-21T04:57:46;1999.90;;;999.90;;
24173;SDS011;12324;48.146;11.502;2022-11-21T05:00:13;1999.90;;;999.90;;
24173;SDS011;12324;48.146;11.502;2022-11-21T05:02:47;1999.90;;;999.90;;
24173;SDS011;12324;48.146;11.502;2022-11-21T05:05:14;1999.90;;;999.90;;
24173;SDS011;12324;48.146;11.502;2022-11-21T05:07:41;1999.90;;;999.90;;
24173;SDS011;12324;48.146;11.502;2022-11-21T05:10:09;1999.90;;;999.90;;
24173;SDS011;12324;48.146;11.502;2022-11-21T05:12:36;1999.90;;;999.90;;
24173;SDS011;12324;48.146;11.502;2022-11-21T05:15:21;1999.90;;;999.90;;
24173;SDS011;12324;48.146;11.502;2022-11-21T05:17:50;1999.90;;;999.90;;
24173;SDS011;12324;48.146;11.502;2022-11-21T05:20:17;1999.90;;;999.90;;
24173;SDS011;12324;48.146;11.502;2022-11-21T05:22:46;1999.90;;;999.90;;
24173;SDS011;12324;48.146;11.502;2022-11-21T05:25:16;1999.90;;;999.90;;
24173;SDS011;12324;48.146;11.502;2022-11-21T05:27:43;1999.90;;;999.90;;
24173;SDS011;12324;48.146;11.502;2022-11-21T05:30:10;1999.90;;;999.90;;
24173;SDS011;12324;48.146;11.502;2022-11-21T05:32:37;1999.90;;;999.90;;
24173;SDS011;12324;48.146;11.502;2022-11-21T05:35:05;1999.90;;;999.90;;
24173;SDS011;12324;48.146;11.502;2022-11-21T05:37:33;1999.90;;;999.90;;
24173;SDS011;12324;48.146;11.502;2022-11-21T05:40:00;1999.90;;;999.90;;
24173;SDS011;12324;48.146;11.502;2022-11-21T05:42:27;1999.90;;;999.90;;
24173;SDS011;12324;48.146;11.502;2022-11-21T05:45:12;1999.90;;;999.90;;
24173;SDS011;12324;48.146;11.502;2022-11-21T05:47:40;1999.90;;;999.90;;
24173;SDS011;12324;48.146;11.502;2022-11-21T05:50:07;1999.90;;;999.90;;
24173;SDS011;12324;48.146;11.502;2022-11-21T05:52:34;1999.90;;;999.90;;
24173;SDS011;12324;48.146;11.502;2022-11-21T05:55:01;1999.90;;;999.90;;
24173;SDS011;12324;48.146;11.502;2022-11-21T05:57:29;1999.90;;;999.90;;
24173;SDS011;12324;48.146;11.502;2022-11-21T05:59:56;1999.90;;;999.90;;
24173;SDS011;12324;48.146;11.502;2022-11-21T06:02:23;1999.90;;;999.90;;
24173;SDS011;12324;48.146;11.502;2022-11-21T06:05:09;1999.90;;;999.90;;
24173;SDS011;12324;48.146;11.502;2022-11-21T06:07:36;1999.90;;;999.90;;
24173;SDS011;12324;48.146;11.502;2022-11-21T06:10:03;1999.90;;;999.90;;
24173;SDS011;12324;48.146;11.502;2022-11-21T06:12:31;1999.90;;;999.90;;
24173;SDS011;12324;48.146;11.502;2022-11-21T06:14:58;1999.90;;;999.90;;
24173;SDS011;12324;48.146;11.502;2022-11-21T06:17:25;1999.90;;;999.90;;
24173;SDS011;12324;48.146;11.502;2022-11-21T06:19:52;1999.90;;;999.90;;
24173;SDS011;12324;48.146;11.502;2022-11-21T06:22:19;1999.90;;;999.90;;
24173;SDS011;12324;48.146;11.502;2022-11-21T06:24:46;1999.90;;;999.90;;
24173;SDS011;12324;48.146;11.502;2022-11-21T06:27:13;1999.90;;;999.90;;
24173;SDS011;12324;48.146;11.502;2022-11-21T06:29:40;1999.90;;;999.90;;
24173;SDS011;12324;48.146;11.502;2022-11-21T06:32:07;1999.90;;;999.90;;
24173;SDS011;12324;48.146;11.502;2022-11-21T06:34:34;1999.90;;;999.90;;
24173;SDS011;12324;48.146;11.502;2022-11-21T06:37:01;1999.90;;;999.90;;
24173;SDS011;12324;48.146;11.502;2022-11-21T06:39:28;1999.90;;;999.90;;
24173;SDS011;12324;48.146;11.502;2022-11-21T06:41:55;1999.90;;;999.90;;
24173;SDS011;12324;48.146;11.502;2022-11-21T06:44:22;1999.90;;;999.90;;
24173;SDS011;12324;48.146;11.502;2022-11-21T06:46:49;1999.90;;;999.90;;
24173;SDS011;12324;48.146;11.502;2022-11-21T06:49:17;1999.90;;;999.90;;
24173;SDS011;12324;48.146;11.502;2022-11-21T06:51:44;1999.90;;;999.90;;
24173;SDS011;12324;48.146;11.502;2022-11-21T06:54:11;1999.90;;;999.90;;
24173;SDS011;12324;48.146;11.502;2022-11-21T06:56:42;1999.90;;;999.90;;
24173;SDS011;12324;48.146;11.502;2022-11-21T06:59:09;1999.90;;;999.90;;
24173;SDS011;12324;48.146;11.502;2022-11-21T07:01:36;1999.90;;;999.90;;
24173;SDS011;12324;48.146;11.502;2022-11-21T07:04:03;1999.90;;;999.90;;
24173;SDS011;12324;48.146;11.502;2022-11-21T07:06:30;1999.90;;;999.90;;
24173;SDS011;12324;48.146;11.502;2022-11-21T07:08:57;1999.90;;;999.90;;
24173;SDS011;12324;48.146;11.502;2022-11-21T07:11:44;1999.90;;;999.90;;
24173;SDS011;12324;48.146;11.502;2022-11-21T07:14:11;1999.90;;;999.90;;
24173;SDS011;12324;48.146;11.502;2022-11-21T07:16:38;1999.90;;;999.90;;
24173;SDS011;12324;48.146;11.502;2022-11-21T07:19:05;1999.90;;;999.90;;
24173;SDS011;12324;48.146;11.502;2022-11-21T07:21:32;1999.90;;;999.90;;
24173;SDS011;12324;48.146;11.502;2022-11-21T07:24:00;1999.90;;;999.90;;
24173;SDS011;12324;48.146;11.502;2022-11-21T07:26:27;1999.90;;;999.90;;
24173;SDS011;12324;48.146;11.502;2022-11-21T07:28:54;1999.90;;;999.90;;
24173;SDS011;12324;48.146;11.502;2022-11-21T07:31:21;1999.90;;;999.90;;
24173;SDS011;12324;48.146;11.502;2022-11-21T07:33:48;1999.90;;;999.90;;
24173;SDS011;12324;48.146;11.502;2022-11-21T07:36:15;1999.90;;;999.90;;
24173;SDS011;12324;48.146;11.502;2022-11-21T07:38:44;1999.90;;;999.90;;
24173;SDS011;12324;48.146;11.502;2022-11-21T07:41:11;1999.90;;;999.90;;
24173;SDS011;12324;48.146;11.502;2022-11-21T07:43:38;1999.90;;;999.90;;
24173;SDS011;12324;48.146;11.502;2022-11-21T07:46:05;1999.90;;;999.90;;
24173;SDS011;12324;48.146;11.502;2022-11-21T07:48:32;1999.90;;;999.90;;
24173;SDS011;12324;48.146;11.502;2022-11-21T07:51:01;1999.90;;;999.90;;
24173;SDS011;12324;48.146;11.502;2022-11-21T07:53:29;1999.90;;;999.90;;
24173;SDS011;12324;48.146;11.502;2022-11-21T07:55:57;1999.90;;;999.90;;
24173;SDS011;12324;48.146;11.502;2022-11-21T07:58:24;1999.90;;;999.90;;
24173;SDS011;12324;48.146;11.502;2022-11-21T08:00:51;1999.90;;;999.90;;
24173;SDS011;12324;48.146;11.502;2022-11-21T08:03:18;1999.90;;;999.90;;
24173;SDS011;12324;48.146;11.502;2022-11-21T08:05:46;1999.90;;;999.90;;
24173;SDS011;12324;48.146;11.502;2022-11-21T08:08:13;1999.90;;;999.90;;
24173;SDS011;12324;48.146;11.502;2022-11-21T08:10:42;1999.90;;;999.90;;
24173;SDS011;12324;48.146;11.502;2022-11-21T08:13:09;1999.90;;;999.90;;
24173;SDS011;12324;48.146;11.502;2022-11-21T08:15:37;1999.90;;;999.90;;
24173;SDS011;12324;48.146;11.502;2022-11-21T08:18:11;1999.90;;;999.90;;
24173;SDS011;12324;48.146;11.502;2022-11-21T08:20:39;1999.90;;;999.90;;
24173;SDS011;12324;48.146;11.502;2022-11-21T08:23:06;1999.90;;;999.90;;
24173;SDS011;12324;48.146;11.502;2022-11-21T08:25:35;1999.90;;;999.90;;
24173;SDS011;12324;48.146;11.502;2022-11-21T08:28:02;1999.90;;;999.90;;
24173;SDS011;12324;48.146;11.502;2022-11-21T08:30:30;1999.90;;;999.90;;
24173;SDS011;12324;48.146;11.502;2022-11-21T08:32:57;1999.90;;;999.90;;
24173;SDS011;12324;48.146;11.502;2022-11-21T08:35:25;1999.90;;;999.90;;
24173;SDS011;12324;48.146;11.502;2022-11-21T08:37:58;1999.90;;;999.90;;
24173;SDS011;12324;48.146;11.502;2022-11-21T08:40:26;1999.90;;;999.90;;
24173;SDS011;12324;48.146;11.502;2022-11-21T08:42:56;1999.90;;;999.90;;
24173;SDS011;12324;48.146;11.502;2022-11-21T08:45:24;1999.90;;;999.90;;
24173;SDS011;12324;48.146;11.502;2022-11-21T08:47:51;1999.90;;;999.90;;
24173;SDS011;12324;48.146;11.502;2022-11-21T08:50:19;1999.90;;;999.90;;
24173;SDS011;12324;48.146;11.502;2022-11-21T08:52:46;1999.90;;;999.90;;
24173;SDS011;12324;48.146;11.502;2022-11-21T08:55:13;1999.90;;;999.90;;
24173;SDS011;12324;48.146;11.502;2022-11-21T08:57:41;1999.90;;;999.90;;
24173;SDS011;12324;48.146;11.502;2022-11-21T09:00:09;1999.90;;;999.90;;
24173;SDS011;12324;48.146;11.502;2022-11-21T09:02:39;1999.90;;;999.90;;
24173;SDS011;12324;48.146;11.502;2022-11-21T09:05:07;1999.90;;;999.90;;
24173;SDS011;12324;48.146;11.502;2022-11-21T09:07:34;1999.90;;;999.90;;
24173;SDS011;12324;48.146;11.502;2022-11-21T09:10:02;1999.90;;;999.90;;
24173;SDS011;12324;48.146;11.502;2022-11-21T09:12:29;1999.90;;;999.90;;
24173;SDS011;12324;48.146;11.502;2022-11-21T09:14:56;1999.90;;;999.90;;
24173;SDS011;12324;48.146;11.502;2022-11-21T09:17:42;1999.90;;;999.90;;
24173;SDS011;12324;48.146;11.502;2022-11-21T09:20:28;1999.90;;;999.90;;
24173;SDS011;12324;48.146;11.502;2022-11-21T09:22:55;1999.90;;;999.90;;
24173;SDS011;12324;48.146;11.502;2022-11-21T09:25:22;1999.90;;;999.90;;
24173;SDS011;12324;48.146;11.502;2022-11-21T09:27:49;1999.90;;;999.90;;
24173;SDS011;12324;48.146;11.502;2022-11-21T09:30:16;1999.90;;;999.90;;
24173;SDS011;12324;48.146;11.502;2022-11-21T09:32:43;1999.90;;;999.90;;
24173;SDS011;12324;48.146;11.502;2022-11-21T09:35:10;1999.90;;;999.90;;
24173;SDS011;12324;48.146;11.502;2022-11-21T09:37:37;1999.90;;;999.90;;
24173;SDS011;12324;48.146;11.502;2022-11-21T09:40:05;1999.90;;;999.90;;
24173;SDS011;12324;48.146;11.502;2022-11-21T09:45:12;1999.90;;;999.90;;
24173;SDS011;12324;48.146;11.502;2022-11-21T09:47:44;1999.90;;;999.90;;
24173;SDS011;12324;48.146;11.502;2022-11-21T09:52:42;1999.90;;;999.90;;
24173;SDS011;12324;48.146;11.502;2022-11-21T09:55:17;1999.90;;;999.90;;
24173;SDS011;12324;48.146;11.502;2022-11-21T09:57:47;1999.90;;;999.90;;
24173;SDS011;12324;48.146;11.502;2022-11-21T10:00:21;1999.90;;;999.90;;
24173;SDS011;12324;48.146;11.502;2022-11-21T10:02:49;1999.90;;;999.90;;
24173;SDS011;12324;48.146;11.502;2022-11-21T10:05:19;1999.90;;;999.90;;
24173;SDS011;12324;48.146;11.502;2022-11-21T10:07:48;1999.90;;;999.90;;
24173;SDS011;12324;48.146;11.502;2022-11-21T10:10:24;1999.90;;;999.90;;
24173;SDS011;12324;48.146;11.502;2022-11-21T10:23:51;1999.90;;;999.90;;
24173;SDS011;12324;48.146;11.502;2022-11-21T10:26:21;1999.90;;;999.90;;
24173;SDS011;12324;48.146;11.502;2022-11-21T10:28:54;1999.90;;;999.90;;
24173;SDS011;12324;48.146;11.502;2022-11-21T10:33:49;1999.90;;;999.90;;
24173;SDS011;12324;48.146;11.502;2022-11-21T10:36:23;1999.90;;;999.90;;
24173;SDS011;12324;48.146;11.502;2022-11-21T10:38:53;1999.90;;;999.90;;
24173;SDS011;12324;48.146;11.502;2022-11-21T10:41:24;1999.90;;;999.90;;
24173;SDS011;12324;48.146;11.502;2022-11-21T10:44:03;1999.90;;;999.90;;
24173;SDS011;12324;48.146;11.502;2022-11-21T10:46:53;1999.90;;;999.90;;
24173;SDS011;12324;48.146;11.502;2022-11-21T10:49:20;1999.90;;;999.90;;
24173;SDS011;12324;48.146;11.502;2022-11-21T10:57:33;1999.90;;;999.90;;
24173;SDS011;12324;48.146;11.502;2022-11-21T11:02:39;1999.90;;;999.90;;
24173;SDS011;12324;48.146;11.502;2022-11-21T11:07:57;1999.90;;;999.90;;
24173;SDS011;12324;48.146;11.502;2022-11-21T11:10:25;1999.90;;;999.90;;
24173;SDS011;12324;48.146;11.502;2022-11-21T11:12:53;1999.90;;;999.90;;
24173;SDS011;12324;48.146;11.502;2022-11-21T11:16:01;1999.90;;;999.90;;
24173;SDS011;12324;48.146;11.502;2022-11-21T11:18:30;1999.90;;;999.90;;
24173;SDS011;12324;48.146;11.502;2022-11-21T11:23:43;1999.90;;;999.90;;
24173;SDS011;12324;48.146;11.502;2022-11-21T11:26:20;1999.90;;;999.90;;
24173;SDS011;12324;48.146;11.502;2022-11-21T11:28:48;1999.90;;;999.90;;
24173;SDS011;12324;48.146;11.502;2022-11-21T11:31:15;1999.90;;;999.90;;
24173;SDS011;12324;48.146;11.502;2022-11-21T11:38:59;1999.90;;;999.90;;
24173;SDS011;12324;48.146;11.502;2022-11-21T11:44:00;1999.90;;;999.90;;
24173;SDS011;12324;48.146;11.502;2022-11-21T11:47:07;1999.90;;;999.90;;
24173;SDS011;12324;48.146;11.502;2022-11-21T11:49:57;1999.90;;;999.90;;
24173;SDS011;12324;48.146;11.502;2022-11-21T11:55:17;1999.90;;;999.90;;
24173;SDS011;12324;48.146;11.502;2022-11-21T11:57:47;1999.90;;;999.90;;
24173;SDS011;12324;48.146;11.502;2022-11-21T12:00:21;1999.90;;;999.90;;
24173;SDS011;12324;48.146;11.502;2022-11-21T12:03:02;1999.90;;;999.90;;
24173;SDS011;12324;48.146;11.502;2022-11-21T12:05:31;1999.90;;;999.90;;
24173;SDS011;12324;48.146;11.502;2022-11-21T12:11:33;1999.90;;;999.90;;
24173;SDS011;12324;48.146;11.502;2022-11-21T12:13:59;1999.90;;;999.90;;
24173;SDS011;12324;48.146;11.502;2022-11-21T12:16:30;1999.90;;;999.90;;
24173;SDS011;12324;48.146;11.502;2022-11-21T12:19:05;1999.90;;;999.90;;
24173;SDS011;12324;48.146;11.502;2022-11-21T12:21:33;1999.90;;;999.90;;
24173;SDS011;12324;48.146;11.502;2022-11-21T12:24:01;1999.90;;;999.90;;
24173;SDS011;12324;48.146;11.502;2022-11-21T12:26:39;781.88;;;737.88;;
24173;SDS011;12324;48.146;11.502;2022-11-21T12:39:47;749.80;;;709.13;;
24173;SDS011;12324;48.146;11.502;2022-11-21T12:42:27;711.60;;;674.05;;
24173;SDS011;12324;48.146;11.502;2022-11-21T12:59:07;105.22;;;100.47;;
24173;SDS011;12324;48.146;11.502;2022-11-21T13:04:23;82.25;;;78.32;;
24173;SDS011;12324;48.146;11.502;2022-11-21T13:06:51;118.97;;;113.70;;
24173;SDS011;12324;48.146;11.502;2022-11-21T13:09:19;941.83;;;666.72;;
24173;SDS011;12324;48.146;11.502;2022-11-21T13:11:49;1999.90;;;999.90;;
24173;SDS011;12324;48.146;11.502;2022-11-21T13:17:21;1999.90;;;999.90;;
24173;SDS011;12324;48.146;11.502;2022-11-21T13:19:51;196.85;;;187.82;;
24173;SDS011;12324;48.146;11.502;2022-11-21T13:25:34;73.88;;;70.35;;
24173;SDS011;12324;48.146;11.502;2022-11-21T13:27:50;457.50;;;434.30;;
24173;SDS011;12324;48.146;11.502;2022-11-21T13:30:20;1999.90;;;999.90;;
24173;SDS011;12324;48.146;11.502;2022-11-21T13:32:52;1999.90;;;999.90;;
24173;SDS011;12324;48.146;11.502;2022-11-21T13:38:05;1999.90;;;999.90;;
24173;SDS011;12324;48.146;11.502;2022-11-21T13:40:34;1999.90;;;999.90;;
24173;SDS011;12324;48.146;11.502;2022-11-21T13:45:56;139.40;;;133.50;;
24173;SDS011;12324;48.146;11.502;2022-11-21T13:55:56;512.45;;;487.77;;
24173;SDS011;12324;48.146;11.502;2022-11-21T14:09:16;72.03;;;68.45;;
24173;SDS011;12324;48.146;11.502;2022-11-21T14:14:30;1999.90;;;999.90;;
24173;SDS011;12324;48.146;11.502;2022-11-21T14:19:45;1999.90;;;999.90;;
24173;SDS011;12324;48.146;11.502;2022-11-21T14:22:15;1621.63;;;865.10;;
24173;SDS011;12324;48.146;11.502;2022-11-21T14:24:42;571.47;;;544.33;;
24173;SDS011;12324;48.146;11.502;2022-11-21T14:27:14;154.60;;;148.25;;
24173;SDS011;12324;48.146;11.502;2022-11-21T14:29:42;54.58;;;51.47;;
24173;SDS011;12324;48.146;11.502;2022-11-21T14:32:15;72.13;;;68.60;;
24173;SDS011;12324;48.146;11.502;2022-11-21T14:34:42;75.68;;;71.95;;
24173;SDS011;12324;48.146;11.502;2022-11-21T14:37:09;72.35;;;68.70;;
24173;SDS011;12324;48.146;11.502;2022-11-21T14:39:38;69.63;;;66.22;;
24173;SDS011;12324;48.146;11.502;2022-11-21T14:42:19;84.28;;;80.18;;
24173;SDS011;12324;48.146;11.502;2022-11-21T14:44:46;85.57;;;80.88;;
24173;SDS011;12324;48.146;11.502;2022-11-21T14:47:14;69.68;;;66.20;;
24173;SDS011;12324;48.146;11.502;2022-11-21T14:49:51;71.35;;;67.25;;
24173;SDS011;12324;48.146;11.502;2022-11-21T14:52:23;113.68;;;108.78;;
24173;SDS011;12324;48.146;11.502;2022-11-21T14:54:53;348.65;;;334.33;;
24173;SDS011;12324;48.146;11.502;2022-11-21T14:57:41;508.85;;;485.70;;
24173;SDS011;12324;48.146;11.502;2022-11-21T15:00:10;1999.90;;;999.90;;
24173;SDS011;12324;48.146;11.502;2022-11-21T15:02:59;1999.90;;;999.90;;
24173;SDS011;12324;48.146;11.502;2022-11-21T15:05:29;1999.90;;;999.90;;
24173;SDS011;12324;48.146;11.502;2022-11-21T15:08:21;1999.90;;;999.90;;
24173;SDS011;12324;48.146;11.502;2022-11-21T15:11:08;1999.90;;;999.90;;
24173;SDS011;12324;48.146;11.502;2022-11-21T15:13:35;1999.90;;;999.90;;
24173;SDS011;12324;48.146;11.502;2022-11-21T15:16:23;457.20;;;434.63;;
24173;SDS011;12324;48.146;11.502;2022-11-21T15:18:50;556.47;;;530.38;;
24173;SDS011;12324;48.146;11.502;2022-11-21T15:21:17;518.63;;;495.23;;
24173;SDS011;12324;48.146;11.502;2022-11-21T15:23:44;414.30;;;396.85;;
24173;SDS011;12324;48.146;11.502;2022-11-21T15:26:28;250.52;;;240.50;;
24173;SDS011;12324;48.146;11.502;2022-11-21T15:28:59;153.90;;;146.93;;
24173;SDS011;12324;48.146;11.502;2022-11-21T15:31:26;95.30;;;90.95;;
24173;SDS011;12324;48.146;11.502;2022-11-21T15:36:40;79.78;;;75.57;;
24173;SDS011;12324;48.146;11.502;2022-11-21T15:39:11;82.35;;;78.45;;
24173;SDS011;12324;48.146;11.502;2022-11-21T15:41:40;68.13;;;64.57;;
24173;SDS011;12324;48.146;11.502;2022-11-21T15:46:35;59.05;;;55.95;;
24173;SDS011;12324;48.146;11.502;2022-11-21T15:49:08;54.50;;;51.45;;
24173;SDS011;12324;48.146;11.502;2022-11-21T15:51:55;49.67;;;46.78;;
24173;SDS011;12324;48.146;11.502;2022-11-21T15:54:37;57.80;;;54.33;;
24173;SDS011;12324;48.146;11.502;2022-11-21T15:57:04;156.23;;;149.68;;